Commodore Clipper — C6QQ3 — position and weather

sailwx.info

Track history (hours):
 
Tides and Currents Weather Stations Pressure Air Temp Water Temp Dewpoint Dewpoint Depression Visibility Wind Speed Wind Dir Waves Ship Positions

Commodore Clipper

Operator: Condor Marine Services

Last reported at 2020-Jul-02 14:31 UTC. Time now 2020-Jul-02 15:19 UTC.
Position N 49°22' W 002°17'.

Length 130 m; draft 5.2 m.

Type: Ship (hazmat cat C). MMSI: 308094000.

Date/timePositionNaut miles runAvg speedWind from/ knotsBaromVisibWave heightAir tempDewpointWater temp
2020-Jul-02 14:31N 49°22' W 002°17'4615.1
2020-Jul-02 11:28N 50°03' W 001°43'917.6
2020-Jul-02 10:58N 50°10' W 001°36'2817.1
2020-Jul-02 09:20N 50°33' W 001°11'617.3
2020-Jul-02 09:00N 50°38' W 001°06'11 4.3
2020-Jul-02 06:30N 50°49' W 001°06'13 5.4
2020-Jul-02 04:00N 50°35' W 001°09'4013.9
2020-Jul-02 01:09N 50°03' W 001°45'2515.1
2020-Jul-01 23:30N 49°42' W 002°04'32 6.4
2020-Jul-01 18:31N 49°10' W 002°07'1 0.4
2020-Jul-01 16:01N 49°10' W 002°09'3012.2
2020-Jul-01 13:30N 49°40' W 002°04'78 9.7
2020-Jul-01 05:30N 50°49' W 001°06'1811.6
2020-Jul-01 04:00N 50°32' W 001°12'6115.4
2020-Jul-01 00:00N 49°41' W 002°05'22 8.6
2020-Jun-30 21:30N 49°27' W 002°32'23 5.4
2020-Jun-30 17:10N 49°11' W 002°07'711.4
2020-Jun-30 16:31N 49°11' W 002°18'1414.2
2020-Jun-30 15:30N 49°25' W 002°15'1414.1
2020-Jun-30 14:30N 49°38' W 002°07'1212.2
2020-Jun-30 13:30N 49°49' W 001°57'2315.1
2020-Jun-30 11:59N 50°08' W 001°38'4510.2
2020-Jun-30 07:30N 50°49' W 001°06'0 0.0
2020-Jun-30 06:30N 50°49' W 001°06'4914.7
2020-Jun-30 03:09N 50°05' W 001°42'1218.9
2020-Jun-30 02:31N 49°55' W 001°53'3517.5
2020-Jun-30 00:31N 49°23' W 002°15'13 8.9
2020-Jun-29 23:01N 49°11' W 002°07'0 0.0
2020-Jun-29 22:29N 49°11' W 002°07'0 0.0
2020-Jun-29 21:30N 49°11' W 002°07'23 4.6
2020-Jun-29 16:30N 49°27' W 002°32'0 0.0
2020-Jun-29 16:00N 49°27' W 002°32'19 9.3
2020-Jun-29 14:00N 49°37' W 002°07'611.9
2020-Jun-29 13:30N 49°42' W 002°04'7611.7
2020-Jun-29 07:01N 50°49' W 001°06'0 0.0
2020-Jun-29 05:30N 50°49' W 001°06'0 0.0
2020-Jun-29 04:30N 50°49' W 001°06'0 0.0
2020-Jun-29 00:30N 50°49' W 001°06'0 0.0
2020-Jun-28 23:30N 50°49' W 001°06'0 0.0
2020-Jun-28 22:30N 50°49' W 001°06'0 0.0
2020-Jun-28 22:01N 50°49' W 001°06'0 0.0
2020-Jun-28 21:31N 50°49' W 001°06'0 0.0
2020-Jun-28 18:31N 50°49' W 001°06'0 0.0
2020-Jun-28 14:30N 50°49' W 001°06'0 0.0
2020-Jun-28 13:30N 50°49' W 001°06'0 0.0
2020-Jun-28 12:01N 50°49' W 001°06'0 0.0
2020-Jun-28 07:30N 50°49' W 001°06'1 0.5
2020-Jun-28 05:01N 50°48' W 001°07'8514.2
2020-Jun-27 23:01N 49°32' W 002°08'816.2
2020-Jun-27 22:31N 49°25' W 002°13'15 4.8
2020-Jun-27 19:27N 49°11' W 002°07'0 0.5
2020-Jun-27 19:00N 49°10' W 002°07'23 9.4
2020-Jun-27 16:30N 49°27' W 002°32'22 9.0
2020-Jun-27 14:01N 49°41' W 002°05'713.5
2020-Jun-27 13:30N 49°47' W 001°59'5513.7
2020-Jun-27 09:30N 50°32' W 001°10'1711.2
2020-Jun-27 08:01N 50°49' W 001°06'0 0.1
2020-Jun-27 07:30N 50°49' W 001°06'0 0.0
2020-Jun-27 06:00N 50°49' W 001°06'5010.0
2020-Jun-27 01:00N 50°05' W 001°43'3517.5
2020-Jun-26 23:00N 49°34' W 002°09'2411.8
2020-Jun-26 21:00N 49°11' W 002°07'0 0.0
2020-Jun-26 20:30N 49°11' W 002°07'0 0.0
2020-Jun-26 19:00N 49°11' W 002°07'1711.4
2020-Jun-26 17:30N 49°22' W 002°27'6 4.3
2020-Jun-26 16:00N 49°27' W 002°32'2412.1
2020-Jun-26 14:01N 49°43' W 002°04'1515.4
2020-Jun-26 13:00N 49°55' W 001°48'914.7
2020-Jun-26 12:22N 50°03' W 001°40'914.1
2020-Jun-26 11:42N 50°09' W 001°29'714.8
2020-Jun-26 11:16N 50°15' W 001°24'415.2
2020-Jun-26 11:00N 50°18' W 001°22'3210.7
2020-Jun-26 08:00N 50°49' W 001°06'0 0.0
2020-Jun-26 07:30N 50°49' W 001°06'0 0.0
2020-Jun-26 07:00N 50°49' W 001°06'0 0.0
2020-Jun-26 06:00N 50°49' W 001°06'0 0.0
2020-Jun-26 05:30N 50°49' W 001°06'5711.3
2020-Jun-26 00:31N 49°58' W 001°46'5011.0
2020-Jun-25 20:00N 49°11' W 002°07'0 0.0
2020-Jun-25 19:01N 49°11' W 002°07'7 7.0
2020-Jun-25 18:01N 49°10' W 002°18'2013.0
2020-Jun-25 16:30N 49°27' W 002°32'11 5.3
2020-Jun-25 14:30N 49°31' W 002°16'2617.2
2020-Jun-25 13:00N 49°51' W 001°52'816.0
2020-Jun-25 12:30N 49°58' W 001°44'815.2
2020-Jun-25 11:59N 50°05' W 001°38'715.1
2020-Jun-25 11:30N 50°10' W 001°31'3015.0
2020-Jun-25 09:30N 50°35' W 001°06'1312.7
2020-Jun-25 08:31N 50°48' W 001°07'1 0.2
2020-Jun-25 05:01N 50°49' W 001°07'1110.9
2020-Jun-25 04:00N 50°38' W 001°07'9 8.7
2020-Jun-25 03:00N 50°30' W 001°14'10 9.7
2020-Jun-25 02:01N 50°22' W 001°23'510.8
2020-Jun-25 01:31N 50°18' W 001°28'2516.6
2020-Jun-25 00:01N 49°57' W 001°49'5016.6
2020-Jun-24 21:00N 49°10' W 002°12'3 1.3
2020-Jun-24 18:28N 49°11' W 002°07'23 7.9
2020-Jun-24 15:31N 49°27' W 002°32'1711.4
2020-Jun-24 14:01N 49°35' W 002°08'3517.6
2020-Jun-24 12:01N 50°05' W 001°40'815.6
2020-Jun-24 11:30N 50°12' W 001°33'2315.2
2020-Jun-24 10:01N 50°31' W 001°14'19 6.2
2020-Jun-24 07:00N 50°49' W 001°06'0 0.0
2020-Jun-24 06:00N 50°49' W 001°06'13 6.3
2020-Jun-24 03:56N 50°36' W 001°09'8 8.2
2020-Jun-24 03:00N 50°29' W 001°15'4 8.8
2020-Jun-24 02:30N 50°26' W 001°19'1912.8
2020-Jun-24 01:00N 50°09' W 001°34'5217.5
2020-Jun-23 22:01N 49°24' W 002°16'918.5
2020-Jun-23 21:31N 49°15' W 002°20'10 3.2
2020-Jun-23 18:31N 49°11' W 002°07'1514.6
2020-Jun-23 17:31N 49°11' W 002°29'26 6.6
2020-Jun-23 13:30N 49°34' W 002°10'4417.5
2020-Jun-23 11:01N 50°11' W 001°33'815.3
2020-Jun-23 10:31N 50°17' W 001°27'815.3
2020-Jun-23 10:00N 50°24' W 001°21'814.8
2020-Jun-23 09:30N 50°30' W 001°15'1414.0
2020-Jun-23 08:30N 50°42' W 001°03'7 2.2
2020-Jun-23 05:30N 50°49' W 001°06'1 2.6
2020-Jun-23 05:01N 50°48' W 001°07'1111.0
2020-Jun-23 04:01N 50°37' W 001°04'1312.5
2020-Jun-23 03:00N 50°27' W 001°17'2114.1
2020-Jun-23 01:30N 50°10' W 001°37'3115.7
2020-Jun-22 23:31N 49°44' W 002°03'3416.9
2020-Jun-22 21:31N 49°12' W 002°19'814.5
2020-Jun-22 20:58N 49°11' W 002°07'0 0.2
2020-Jun-22 20:30N 49°11' W 002°07'0 0.0
2020-Jun-22 20:00N 49°11' W 002°07'23 6.6
2020-Jun-22 16:30N 49°27' W 002°32'  
Track history (hours):
 
Tides and Currents Weather Stations Pressure Air Temp Water Temp Dewpoint Dewpoint Depression Visibility Wind Speed Wind Dir Waves Ship Positions

Commodore Clipper

Operator: Condor Marine Services

Last reported at 2020-Jul-02 14:31 UTC. Time now 2020-Jul-02 15:19 UTC.
Position N 49°22' W 002°17'.

Length 130 m; draft 5.2 m.

Type: Ship (hazmat cat C). MMSI: 308094000.

Date/timePositionNaut miles runAvg speedWind from/ knotsBaromVisibWave heightAir tempDewpointWater temp
2020-Jul-02 14:31N 49°22' W 002°17'4615.1
2020-Jul-02 11:28N 50°03' W 001°43'917.6
2020-Jul-02 10:58N 50°10' W 001°36'2817.1
2020-Jul-02 09:20N 50°33' W 001°11'617.3
2020-Jul-02 09:00N 50°38' W 001°06'11 4.3
2020-Jul-02 06:30N 50°49' W 001°06'13 5.4
2020-Jul-02 04:00N 50°35' W 001°09'4013.9
2020-Jul-02 01:09N 50°03' W 001°45'2515.1
2020-Jul-01 23:30N 49°42' W 002°04'32 6.4
2020-Jul-01 18:31N 49°10' W 002°07'1 0.4
2020-Jul-01 16:01N 49°10' W 002°09'3012.2
2020-Jul-01 13:30N 49°40' W 002°04'78 9.7
2020-Jul-01 05:30N 50°49' W 001°06'1811.6
2020-Jul-01 04:00N 50°32' W 001°12'6115.4
2020-Jul-01 00:00N 49°41' W 002°05'22 8.6
2020-Jun-30 21:30N 49°27' W 002°32'23 5.4
2020-Jun-30 17:10N 49°11' W 002°07'711.4
2020-Jun-30 16:31N 49°11' W 002°18'1414.2
2020-Jun-30 15:30N 49°25' W 002°15'1414.1
2020-Jun-30 14:30N 49°38' W 002°07'1212.2
2020-Jun-30 13:30N 49°49' W 001°57'2315.1
2020-Jun-30 11:59N 50°08' W 001°38'4510.2
2020-Jun-30 07:30N 50°49' W 001°06'0 0.0
2020-Jun-30 06:30N 50°49' W 001°06'4914.7
2020-Jun-30 03:09N 50°05' W 001°42'1218.9
2020-Jun-30 02:31N 49°55' W 001°53'3517.5
2020-Jun-30 00:31N 49°23' W 002°15'13 8.9
2020-Jun-29 23:01N 49°11' W 002°07'0 0.0
2020-Jun-29 22:29N 49°11' W 002°07'0 0.0
2020-Jun-29 21:30N 49°11' W 002°07'23 4.6
2020-Jun-29 16:30N 49°27' W 002°32'0 0.0
2020-Jun-29 16:00N 49°27' W 002°32'19 9.3
2020-Jun-29 14:00N 49°37' W 002°07'611.9
2020-Jun-29 13:30N 49°42' W 002°04'7611.7
2020-Jun-29 07:01N 50°49' W 001°06'0 0.0
2020-Jun-29 05:30N 50°49' W 001°06'0 0.0
2020-Jun-29 04:30N 50°49' W 001°06'0 0.0
2020-Jun-29 00:30N 50°49' W 001°06'0 0.0
2020-Jun-28 23:30N 50°49' W 001°06'0 0.0
2020-Jun-28 22:30N 50°49' W 001°06'0 0.0
2020-Jun-28 22:01N 50°49' W 001°06'0 0.0
2020-Jun-28 21:31N 50°49' W 001°06'0 0.0
2020-Jun-28 18:31N 50°49' W 001°06'0 0.0
2020-Jun-28 14:30N 50°49' W 001°06'0 0.0
2020-Jun-28 13:30N 50°49' W 001°06'0 0.0
2020-Jun-28 12:01N 50°49' W 001°06'0 0.0
2020-Jun-28 07:30N 50°49' W 001°06'1 0.5
2020-Jun-28 05:01N 50°48' W 001°07'8514.2
2020-Jun-27 23:01N 49°32' W 002°08'816.2
2020-Jun-27 22:31N 49°25' W 002°13'15 4.8
2020-Jun-27 19:27N 49°11' W 002°07'0 0.5
2020-Jun-27 19:00N 49°10' W 002°07'23 9.4
2020-Jun-27 16:30N 49°27' W 002°32'22 9.0
2020-Jun-27 14:01N 49°41' W 002°05'713.5
2020-Jun-27 13:30N 49°47' W 001°59'5513.7
2020-Jun-27 09:30N 50°32' W 001°10'1711.2
2020-Jun-27 08:01N 50°49' W 001°06'0 0.1
2020-Jun-27 07:30N 50°49' W 001°06'0 0.0
2020-Jun-27 06:00N 50°49' W 001°06'5010.0
2020-Jun-27 01:00N 50°05' W 001°43'3517.5
2020-Jun-26 23:00N 49°34' W 002°09'2411.8
2020-Jun-26 21:00N 49°11' W 002°07'0 0.0
2020-Jun-26 20:30N 49°11' W 002°07'0 0.0
2020-Jun-26 19:00N 49°11' W 002°07'1711.4
2020-Jun-26 17:30N 49°22' W 002°27'6 4.3
2020-Jun-26 16:00N 49°27' W 002°32'2412.1
2020-Jun-26 14:01N 49°43' W 002°04'1515.4
2020-Jun-26 13:00N 49°55' W 001°48'914.7
2020-Jun-26 12:22N 50°03' W 001°40'914.1
2020-Jun-26 11:42N 50°09' W 001°29'714.8
2020-Jun-26 11:16N 50°15' W 001°24'415.2
2020-Jun-26 11:00N 50°18' W 001°22'3210.7
2020-Jun-26 08:00N 50°49' W 001°06'0 0.0
2020-Jun-26 07:30N 50°49' W 001°06'0 0.0
2020-Jun-26 07:00N 50°49' W 001°06'0 0.0
2020-Jun-26 06:00N 50°49' W 001°06'0 0.0
2020-Jun-26 05:30N 50°49' W 001°06'5711.3
2020-Jun-26 00:31N 49°58' W 001°46'5011.0
2020-Jun-25 20:00N 49°11' W 002°07'0 0.0
2020-Jun-25 19:01N 49°11' W 002°07'7 7.0
2020-Jun-25 18:01N 49°10' W 002°18'2013.0
2020-Jun-25 16:30N 49°27' W 002°32'11 5.3
2020-Jun-25 14:30N 49°31' W 002°16'2617.2
2020-Jun-25 13:00N 49°51' W 001°52'816.0
2020-Jun-25 12:30N 49°58' W 001°44'815.2
2020-Jun-25 11:59N 50°05' W 001°38'715.1
2020-Jun-25 11:30N 50°10' W 001°31'3015.0
2020-Jun-25 09:30N 50°35' W 001°06'1312.7
2020-Jun-25 08:31N 50°48' W 001°07'1 0.2
2020-Jun-25 05:01N 50°49' W 001°07'1110.9
2020-Jun-25 04:00N 50°38' W 001°07'9 8.7
2020-Jun-25 03:00N 50°30' W 001°14'10 9.7
2020-Jun-25 02:01N 50°22' W 001°23'510.8
2020-Jun-25 01:31N 50°18' W 001°28'2516.6
2020-Jun-25 00:01N 49°57' W 001°49'5016.6
2020-Jun-24 21:00N 49°10' W 002°12'3 1.3
2020-Jun-24 18:28N 49°11' W 002°07'23 7.9
2020-Jun-24 15:31N 49°27' W 002°32'1711.4
2020-Jun-24 14:01N 49°35' W 002°08'3517.6
2020-Jun-24 12:01N 50°05' W 001°40'815.6
2020-Jun-24 11:30N 50°12' W 001°33'2315.2
2020-Jun-24 10:01N 50°31' W 001°14'19 6.2
2020-Jun-24 07:00N 50°49' W 001°06'0 0.0
2020-Jun-24 06:00N 50°49' W 001°06'13 6.3
2020-Jun-24 03:56N 50°36' W 001°09'8 8.2
2020-Jun-24 03:00N 50°29' W 001°15'4 8.8
2020-Jun-24 02:30N 50°26' W 001°19'1912.8
2020-Jun-24 01:00N 50°09' W 001°34'5217.5
2020-Jun-23 22:01N 49°24' W 002°16'918.5
2020-Jun-23 21:31N 49°15' W 002°20'10 3.2
2020-Jun-23 18:31N 49°11' W 002°07'1514.6
2020-Jun-23 17:31N 49°11' W 002°29'26 6.6
2020-Jun-23 13:30N 49°34' W 002°10'4417.5
2020-Jun-23 11:01N 50°11' W 001°33'815.3
2020-Jun-23 10:31N 50°17' W 001°27'815.3
2020-Jun-23 10:00N 50°24' W 001°21'814.8
2020-Jun-23 09:30N 50°30' W 001°15'1414.0
2020-Jun-23 08:30N 50°42' W 001°03'7 2.2
2020-Jun-23 05:30N 50°49' W 001°06'1 2.6
2020-Jun-23 05:01N 50°48' W 001°07'1111.0
2020-Jun-23 04:01N 50°37' W 001°04'1312.5
2020-Jun-23 03:00N 50°27' W 001°17'2114.1
2020-Jun-23 01:30N 50°10' W 001°37'3115.7
2020-Jun-22 23:31N 49°44' W 002°03'3416.9
2020-Jun-22 21:31N 49°12' W 002°19'814.5
2020-Jun-22 20:58N 49°11' W 002°07'0 0.2
2020-Jun-22 20:30N 49°11' W 002°07'0 0.0
2020-Jun-22 20:00N 49°11' W 002°07'23 6.6
2020-Jun-22 16:30N 49°27' W 002°32'  

Dump ship's entire track history